sensor_id;sensor_type;location;lat;lon;timestamp;P1;P2;P0
76421;PMS5003;65254;52.354;13.614;2023-03-31T00:00:00;2;2;
76421;PMS5003;65254;52.354;13.614;2023-03-31T00:04:01;2;2;
76421;PMS5003;65254;52.354;13.614;2023-03-31T00:08:00;2;2;
76421;PMS5003;65254;52.354;13.614;2023-03-31T00:12:00;2;2;
76421;PMS5003;65254;52.354;13.614;2023-03-31T00:16:02;1;1;
76421;PMS5003;65254;52.354;13.614;2023-03-31T00:20:00;2;2;
76421;PMS5003;65254;52.354;13.614;2023-03-31T00:24:02;1;1;
76421;PMS5003;65254;52.354;13.614;2023-03-31T00:28:00;2;2;
76421;PMS5003;65254;52.354;13.614;2023-03-31T00:32:01;2;2;
76421;PMS5003;65254;52.354;13.614;2023-03-31T00:36:00;1;1;
76421;PMS5003;65254;52.354;13.614;2023-03-31T00:40:00;1;1;
76421;PMS5003;65254;52.354;13.614;2023-03-31T00:44:06;1;1;
76421;PMS5003;65254;52.354;13.614;2023-03-31T00:48:04;1;1;
76421;PMS5003;65254;52.354;13.614;2023-03-31T00:52:03;1;1;
76421;PMS5003;65254;52.354;13.614;2023-03-31T00:56:05;2;2;
76421;PMS5003;65254;52.354;13.614;2023-03-31T01:00:03;1;1;
76421;PMS5003;65254;52.354;13.614;2023-03-31T01:04:01;1;1;
76421;PMS5003;65254;52.354;13.614;2023-03-31T01:08:01;1;1;
76421;PMS5003;65254;52.354;13.614;2023-03-31T01:12:02;1;1;
76421;PMS5003;65254;52.354;13.614;2023-03-31T01:16:01;1;1;
76421;PMS5003;65254;52.354;13.614;2023-03-31T01:20:06;1;1;
76421;PMS5003;65254;52.354;13.614;2023-03-31T01:24:16;1;1;
76421;PMS5003;65254;52.354;13.614;2023-03-31T01:28:06;1;1;
76421;PMS5003;65254;52.354;13.614;2023-03-31T01:32:16;1;1;
76421;PMS5003;65254;52.354;13.614;2023-03-31T01:36:17;1;1;
76421;PMS5003;65254;52.354;13.614;2023-03-31T01:40:06;1;1;
76421;PMS5003;65254;52.354;13.614;2023-03-31T01:44:06;2;2;
76421;PMS5003;65254;52.354;13.614;2023-03-31T01:48:04;2;2;
76421;PMS5003;65254;52.354;13.614;2023-03-31T01:52:03;1;1;
76421;PMS5003;65254;52.354;13.614;2023-03-31T01:56:04;1;1;
76421;PMS5003;65254;52.354;13.614;2023-03-31T02:00:03;1;1;
76421;PMS5003;65254;52.354;13.614;2023-03-31T02:04:04;1;1;
76421;PMS5003;65254;52.354;13.614;2023-03-31T02:08:05;1;1;
76421;PMS5003;65254;52.354;13.614;2023-03-31T02:12:03;1;1;
76421;PMS5003;65254;52.354;13.614;2023-03-31T02:16:04;1;1;
76421;PMS5003;65254;52.354;13.614;2023-03-31T02:20:05;1;1;
76421;PMS5003;65254;52.354;13.614;2023-03-31T02:24:03;1;1;
76421;PMS5003;65254;52.354;13.614;2023-03-31T02:28:04;1;1;
76421;PMS5003;65254;52.354;13.614;2023-03-31T02:32:04;1;1;
76421;PMS5003;65254;52.354;13.614;2023-03-31T02:36:01;0;0;
76421;PMS5003;65254;52.354;13.614;2023-03-31T02:40:05;1;1;
76421;PMS5003;65254;52.354;13.614;2023-03-31T02:44:01;1;1;
76421;PMS5003;65254;52.354;13.614;2023-03-31T02:48:01;1;1;
76421;PMS5003;65254;52.354;13.614;2023-03-31T02:52:11;0;0;
76421;PMS5003;65254;52.354;13.614;2023-03-31T02:56:10;1;1;
76421;PMS5003;65254;52.354;13.614;2023-03-31T03:00:06;1;1;
76421;PMS5003;65254;52.354;13.614;2023-03-31T03:04:10;1;1;
76421;PMS5003;65254;52.354;13.614;2023-03-31T03:08:08;1;1;
76421;PMS5003;65254;52.354;13.614;2023-03-31T03:12:07;0;0;
76421;PMS5003;65254;52.354;13.614;2023-03-31T03:16:04;1;1;
76421;PMS5003;65254;52.354;13.614;2023-03-31T03:20:02;1;1;
76421;PMS5003;65254;52.354;13.614;2023-03-31T03:24:01;1;1;
76421;PMS5003;65254;52.354;13.614;2023-03-31T03:28:00;1;1;
76421;PMS5003;65254;52.354;13.614;2023-03-31T03:32:00;1;1;
76421;PMS5003;65254;52.354;13.614;2023-03-31T03:36:01;1;1;
76421;PMS5003;65254;52.354;13.614;2023-03-31T03:40:00;1;1;
76421;PMS5003;65254;52.354;13.614;2023-03-31T03:44:01;1;1;
76421;PMS5003;65254;52.354;13.614;2023-03-31T03:48:01;1;1;
76421;PMS5003;65254;52.354;13.614;2023-03-31T03:52:00;1;1;
76421;PMS5003;65254;52.354;13.614;2023-03-31T03:56:01;1;1;
76421;PMS5003;65254;52.354;13.614;2023-03-31T04:00:00;1;1;
76421;PMS5003;65254;52.354;13.614;2023-03-31T04:04:00;1;1;
76421;PMS5003;65254;52.354;13.614;2023-03-31T04:08:01;2;2;
76421;PMS5003;65254;52.354;13.614;2023-03-31T04:12:00;2;2;
76421;PMS5003;65254;52.354;13.614;2023-03-31T04:16:00;1;1;
76421;PMS5003;65254;52.354;13.614;2023-03-31T04:20:01;1;1;
76421;PMS5003;65254;52.354;13.614;2023-03-31T04:24:01;1;1;
76421;PMS5003;65254;52.354;13.614;2023-03-31T04:28:01;1;1;
76421;PMS5003;65254;52.354;13.614;2023-03-31T04:32:00;1;1;
76421;PMS5003;65254;52.354;13.614;2023-03-31T04:36:00;1;1;
76421;PMS5003;65254;52.354;13.614;2023-03-31T04:40:00;1;1;
76421;PMS5003;65254;52.354;13.614;2023-03-31T04:44:00;1;1;
76421;PMS5003;65254;52.354;13.614;2023-03-31T04:48:01;1;1;
76421;PMS5003;65254;52.354;13.614;2023-03-31T04:52:01;1;1;
76421;PMS5003;65254;52.354;13.614;2023-03-31T04:56:01;1;1;
76421;PMS5003;65254;52.354;13.614;2023-03-31T05:00:00;1;1;
76421;PMS5003;65254;52.354;13.614;2023-03-31T05:04:01;1;1;
76421;PMS5003;65254;52.354;13.614;2023-03-31T05:08:00;1;1;
76421;PMS5003;65254;52.354;13.614;2023-03-31T05:12:00;2;2;
76421;PMS5003;65254;52.354;13.614;2023-03-31T05:16:05;3;3;
76421;PMS5003;65254;52.354;13.614;2023-03-31T05:20:01;3;3;
76421;PMS5003;65254;52.354;13.614;2023-03-31T05:24:00;2;2;
76421;PMS5003;65254;52.354;13.614;2023-03-31T05:28:01;2;2;
76421;PMS5003;65254;52.354;13.614;2023-03-31T05:32:00;1;1;
76421;PMS5003;65254;52.354;13.614;2023-03-31T05:36:00;1;1;
76421;PMS5003;65254;52.354;13.614;2023-03-31T05:40:00;1;1;
76421;PMS5003;65254;52.354;13.614;2023-03-31T05:44:01;1;1;
76421;PMS5003;65254;52.354;13.614;2023-03-31T05:48:00;1;1;
76421;PMS5003;65254;52.354;13.614;2023-03-31T05:52:00;1;1;
76421;PMS5003;65254;52.354;13.614;2023-03-31T05:56:02;1;1;
76421;PMS5003;65254;52.354;13.614;2023-03-31T06:00:00;1;1;
76421;PMS5003;65254;52.354;13.614;2023-03-31T06:04:01;1;1;
76421;PMS5003;65254;52.354;13.614;2023-03-31T06:08:00;1;1;
76421;PMS5003;65254;52.354;13.614;2023-03-31T06:12:01;1;1;
76421;PMS5003;65254;52.354;13.614;2023-03-31T06:16:01;1;1;
76421;PMS5003;65254;52.354;13.614;2023-03-31T06:20:00;1;1;
76421;PMS5003;65254;52.354;13.614;2023-03-31T06:24:00;1;1;
76421;PMS5003;65254;52.354;13.614;2023-03-31T06:28:00;1;1;
76421;PMS5003;65254;52.354;13.614;2023-03-31T06:32:01;1;1;
76421;PMS5003;65254;52.354;13.614;2023-03-31T06:36:01;1;1;
76421;PMS5003;65254;52.354;13.614;2023-03-31T06:40:00;1;1;
76421;PMS5003;65254;52.354;13.614;2023-03-31T06:44:00;1;1;
76421;PMS5003;65254;52.354;13.614;2023-03-31T06:48:01;4;4;
76421;PMS5003;65254;52.354;13.614;2023-03-31T06:52:01;2;2;
76421;PMS5003;65254;52.354;13.614;2023-03-31T06:56:01;2;2;
76421;PMS5003;65254;52.354;13.614;2023-03-31T07:00:01;1;1;
76421;PMS5003;65254;52.354;13.614;2023-03-31T07:04:00;1;1;
76421;PMS5003;65254;52.354;13.614;2023-03-31T07:08:01;2;2;
76421;PMS5003;65254;52.354;13.614;2023-03-31T07:12:00;1;1;
76421;PMS5003;65254;52.354;13.614;2023-03-31T07:16:00;1;1;
76421;PMS5003;65254;52.354;13.614;2023-03-31T07:20:00;1;1;
76421;PMS5003;65254;52.354;13.614;2023-03-31T07:24:00;1;1;
76421;PMS5003;65254;52.354;13.614;2023-03-31T07:28:01;1;1;
76421;PMS5003;65254;52.354;13.614;2023-03-31T07:32:01;1;1;
76421;PMS5003;65254;52.354;13.614;2023-03-31T07:36:10;1;1;
76421;PMS5003;65254;52.354;13.614;2023-03-31T07:40:00;1;1;
76421;PMS5003;65254;52.354;13.614;2023-03-31T07:44:00;1;1;
76421;PMS5003;65254;52.354;13.614;2023-03-31T07:48:01;1;1;
76421;PMS5003;65254;52.354;13.614;2023-03-31T07:52:00;1;1;
76421;PMS5003;65254;52.354;13.614;2023-03-31T07:56:00;1;1;
76421;PMS5003;65254;52.354;13.614;2023-03-31T08:00:00;1;1;
76421;PMS5003;65254;52.354;13.614;2023-03-31T08:04:00;1;1;
76421;PMS5003;65254;52.354;13.614;2023-03-31T08:08:00;1;1;
76421;PMS5003;65254;52.354;13.614;2023-03-31T08:12:00;1;1;
76421;PMS5003;65254;52.354;13.614;2023-03-31T08:16:01;1;1;
76421;PMS5003;65254;52.354;13.614;2023-03-31T08:20:08;1;1;
76421;PMS5003;65254;52.354;13.614;2023-03-31T08:24:00;1;1;
76421;PMS5003;65254;52.354;13.614;2023-03-31T08:28:00;1;1;
76421;PMS5003;65254;52.354;13.614;2023-03-31T08:32:00;1;1;
76421;PMS5003;65254;52.354;13.614;2023-03-31T08:36:01;1;1;
76421;PMS5003;65254;52.354;13.614;2023-03-31T08:40:00;1;1;
76421;PMS5003;65254;52.354;13.614;2023-03-31T08:44:03;1;1;
76421;PMS5003;65254;52.354;13.614;2023-03-31T08:48:03;1;1;
76421;PMS5003;65254;52.354;13.614;2023-03-31T08:52:04;1;1;
76421;PMS5003;65254;52.354;13.614;2023-03-31T08:56:03;1;1;
76421;PMS5003;65254;52.354;13.614;2023-03-31T09:00:00;1;1;
76421;PMS5003;65254;52.354;13.614;2023-03-31T09:04:08;1;1;
76421;PMS5003;65254;52.354;13.614;2023-03-31T09:08:05;1;1;
76421;PMS5003;65254;52.354;13.614;2023-03-31T09:12:03;1;1;
76421;PMS5003;65254;52.354;13.614;2023-03-31T09:16:03;1;1;
76421;PMS5003;65254;52.354;13.614;2023-03-31T09:20:04;1;1;
76421;PMS5003;65254;52.354;13.614;2023-03-31T09:24:04;1;1;
76421;PMS5003;65254;52.354;13.614;2023-03-31T09:28:02;1;1;
76421;PMS5003;65254;52.354;13.614;2023-03-31T09:32:05;1;1;
76421;PMS5003;65254;52.354;13.614;2023-03-31T09:36:02;1;1;
76421;PMS5003;65254;52.354;13.614;2023-03-31T09:40:03;1;1;
76421;PMS5003;65254;52.354;13.614;2023-03-31T09:44:00;1;1;
76421;PMS5003;65254;52.354;13.614;2023-03-31T09:48:03;1;1;
76421;PMS5003;65254;52.354;13.614;2023-03-31T09:52:04;1;1;
76421;PMS5003;65254;52.354;13.614;2023-03-31T09:56:02;1;1;
76421;PMS5003;65254;52.354;13.614;2023-03-31T10:00:04;1;1;
76421;PMS5003;65254;52.354;13.614;2023-03-31T10:04:00;1;1;
76421;PMS5003;65254;52.354;13.614;2023-03-31T10:08:13;2;2;
76421;PMS5003;65254;52.354;13.614;2023-03-31T10:12:02;1;1;
76421;PMS5003;65254;52.354;13.614;2023-03-31T10:16:02;2;2;
76421;PMS5003;65254;52.354;13.614;2023-03-31T10:20:05;1;1;
76421;PMS5003;65254;52.354;13.614;2023-03-31T10:24:06;1;1;
76421;PMS5003;65254;52.354;13.614;2023-03-31T10:28:01;1;1;
76421;PMS5003;65254;52.354;13.614;2023-03-31T10:32:02;4;4;
76421;PMS5003;65254;52.354;13.614;2023-03-31T10:36:06;2;2;
76421;PMS5003;65254;52.354;13.614;2023-03-31T10:40:03;1;1;
76421;PMS5003;65254;52.354;13.614;2023-03-31T10:44:02;1;1;
76421;PMS5003;65254;52.354;13.614;2023-03-31T10:48:00;1;1;
76421;PMS5003;65254;52.354;13.614;2023-03-31T10:52:00;1;1;
76421;PMS5003;65254;52.354;13.614;2023-03-31T10:56:10;1;1;
76421;PMS5003;65254;52.354;13.614;2023-03-31T11:00:09;1;1;
76421;PMS5003;65254;52.354;13.614;2023-03-31T11:04:06;1;1;
76421;PMS5003;65254;52.354;13.614;2023-03-31T11:08:12;1;1;
76421;PMS5003;65254;52.354;13.614;2023-03-31T11:12:07;1;1;
76421;PMS5003;65254;52.354;13.614;2023-03-31T11:16:08;2;2;
76421;PMS5003;65254;52.354;13.614;2023-03-31T11:20:06;1;1;
76421;PMS5003;65254;52.354;13.614;2023-03-31T11:24:06;1;1;
76421;PMS5003;65254;52.354;13.614;2023-03-31T11:28:15;1;1;
76421;PMS5003;65254;52.354;13.614;2023-03-31T11:32:24;1;1;
76421;PMS5003;65254;52.354;13.614;2023-03-31T11:36:06;1;1;
76421;PMS5003;65254;52.354;13.614;2023-03-31T11:40:13;1;1;
76421;PMS5003;65254;52.354;13.614;2023-03-31T11:44:03;1;1;
76421;PMS5003;65254;52.354;13.614;2023-03-31T11:48:05;2;2;
76421;PMS5003;65254;52.354;13.614;2023-03-31T11:52:02;1;1;
76421;PMS5003;65254;52.354;13.614;2023-03-31T11:56:01;2;2;
76421;PMS5003;65254;52.354;13.614;2023-03-31T12:00:06;2;2;
76421;PMS5003;65254;52.354;13.614;2023-03-31T12:04:04;2;2;
76421;PMS5003;65254;52.354;13.614;2023-03-31T12:08:04;2;2;
76421;PMS5003;65254;52.354;13.614;2023-03-31T12:12:04;2;2;
76421;PMS5003;65254;52.354;13.614;2023-03-31T12:16:04;1;1;
76421;PMS5003;65254;52.354;13.614;2023-03-31T12:20:04;2;2;
76421;PMS5003;65254;52.354;13.614;2023-03-31T12:24:01;1;1;
76421;PMS5003;65254;52.354;13.614;2023-03-31T12:28:01;2;2;
76421;PMS5003;65254;52.354;13.614;2023-03-31T12:32:04;2;2;
76421;PMS5003;65254;52.354;13.614;2023-03-31T12:36:12;1;1;
76421;PMS5003;65254;52.354;13.614;2023-03-31T12:40:09;1;1;
76421;PMS5003;65254;52.354;13.614;2023-03-31T12:44:09;1;1;
76421;PMS5003;65254;52.354;13.614;2023-03-31T12:48:15;1;1;
76421;PMS5003;65254;52.354;13.614;2023-03-31T12:52:03;1;1;
76421;PMS5003;65254;52.354;13.614;2023-03-31T12:56:00;1;1;
76421;PMS5003;65254;52.354;13.614;2023-03-31T13:04:16;2;2;
76421;PMS5003;65254;52.354;13.614;2023-03-31T13:08:00;2;2;
76421;PMS5003;65254;52.354;13.614;2023-03-31T13:12:05;2;2;
76421;PMS5003;65254;52.354;13.614;2023-03-31T13:16:01;1;1;
76421;PMS5003;65254;52.354;13.614;2023-03-31T13:20:14;1;1;
76421;PMS5003;65254;52.354;13.614;2023-03-31T13:24:01;1;1;
76421;PMS5003;65254;52.354;13.614;2023-03-31T13:28:09;1;1;
76421;PMS5003;65254;52.354;13.614;2023-03-31T13:36:18;1;1;
76421;PMS5003;65254;52.354;13.614;2023-03-31T13:44:08;1;1;
76421;PMS5003;65254;52.354;13.614;2023-03-31T13:48:09;1;1;
76421;PMS5003;65254;52.354;13.614;2023-03-31T13:52:02;1;1;
76421;PMS5003;65254;52.354;13.614;2023-03-31T14:00:12;0;0;
76421;PMS5003;65254;52.354;13.614;2023-03-31T14:04:06;0;0;
76421;PMS5003;65254;52.354;13.614;2023-03-31T14:08:02;1;1;
76421;PMS5003;65254;52.354;13.614;2023-03-31T14:12:18;1;1;
76421;PMS5003;65254;52.354;13.614;2023-03-31T14:16:00;1;1;
76421;PMS5003;65254;52.354;13.614;2023-03-31T14:24:07;1;1;
76421;PMS5003;65254;52.354;13.614;2023-03-31T14:28:09;1;1;
76421;PMS5003;65254;52.354;13.614;2023-03-31T14:32:03;1;1;
76421;PMS5003;65254;52.354;13.614;2023-03-31T14:36:05;1;1;
76421;PMS5003;65254;52.354;13.614;2023-03-31T14:40:01;1;1;
76421;PMS5003;65254;52.354;13.614;2023-03-31T14:44:01;1;1;
76421;PMS5003;65254;52.354;13.614;2023-03-31T14:48:07;1;1;
76421;PMS5003;65254;52.354;13.614;2023-03-31T14:52:03;0;0;
76421;PMS5003;65254;52.354;13.614;2023-03-31T14:56:03;1;1;
76421;PMS5003;65254;52.354;13.614;2023-03-31T15:00:03;0;0;
76421;PMS5003;65254;52.354;13.614;2023-03-31T15:04:03;0;0;
76421;PMS5003;65254;52.354;13.614;2023-03-31T15:08:02;1;1;
76421;PMS5003;65254;52.354;13.614;2023-03-31T15:12:03;1;1;
76421;PMS5003;65254;52.354;13.614;2023-03-31T15:16:18;0;0;
76421;PMS5003;65254;52.354;13.614;2023-03-31T15:24:03;0;0;
76421;PMS5003;65254;52.354;13.614;2023-03-31T15:28:03;0;0;
76421;PMS5003;65254;52.354;13.614;2023-03-31T15:32:10;0;0;
76421;PMS5003;65254;52.354;13.614;2023-03-31T15:36:00;1;1;
76421;PMS5003;65254;52.354;13.614;2023-03-31T15:40:01;1;1;
76421;PMS5003;65254;52.354;13.614;2023-03-31T15:44:03;1;1;
76421;PMS5003;65254;52.354;13.614;2023-03-31T15:48:01;1;1;
76421;PMS5003;65254;52.354;13.614;2023-03-31T15:52:01;1;1;
76421;PMS5003;65254;52.354;13.614;2023-03-31T15:56:01;1;1;
76421;PMS5003;65254;52.354;13.614;2023-03-31T16:00:02;1;1;
76421;PMS5003;65254;52.354;13.614;2023-03-31T16:04:05;2;2;
76421;PMS5003;65254;52.354;13.614;2023-03-31T16:08:01;2;2;
76421;PMS5003;65254;52.354;13.614;2023-03-31T16:12:03;2;2;
76421;PMS5003;65254;52.354;13.614;2023-03-31T16:16:06;1;1;
76421;PMS5003;65254;52.354;13.614;2023-03-31T16:20:04;1;1;
76421;PMS5003;65254;52.354;13.614;2023-03-31T16:24:00;1;1;
76421;PMS5003;65254;52.354;13.614;2023-03-31T16:28:01;1;1;
76421;PMS5003;65254;52.354;13.614;2023-03-31T16:32:10;2;2;
76421;PMS5003;65254;52.354;13.614;2023-03-31T16:36:01;2;2;
76421;PMS5003;65254;52.354;13.614;2023-03-31T16:40:00;3;3;
76421;PMS5003;65254;52.354;13.614;2023-03-31T16:44:01;3;3;
76421;PMS5003;65254;52.354;13.614;2023-03-31T16:48:10;5;5;
76421;PMS5003;65254;52.354;13.614;2023-03-31T16:52:01;6;6;
76421;PMS5003;65254;52.354;13.614;2023-03-31T16:56:01;4;4;
76421;PMS5003;65254;52.354;13.614;2023-03-31T17:00:00;5;5;
76421;PMS5003;65254;52.354;13.614;2023-03-31T17:04:01;4;4;
76421;PMS5003;65254;52.354;13.614;2023-03-31T17:08:00;3;3;
76421;PMS5003;65254;52.354;13.614;2023-03-31T17:12:00;3;3;
76421;PMS5003;65254;52.354;13.614;2023-03-31T17:16:11;3;3;
76421;PMS5003;65254;52.354;13.614;2023-03-31T17:20:00;3;3;
76421;PMS5003;65254;52.354;13.614;2023-03-31T17:24:04;3;3;
76421;PMS5003;65254;52.354;13.614;2023-03-31T17:28:01;3;3;
76421;PMS5003;65254;52.354;13.614;2023-03-31T17:32:00;3;3;
76421;PMS5003;65254;52.354;13.614;2023-03-31T17:36:00;3;3;
76421;PMS5003;65254;52.354;13.614;2023-03-31T17:40:00;3;3;
76421;PMS5003;65254;52.354;13.614;2023-03-31T17:44:00;3;3;
76421;PMS5003;65254;52.354;13.614;2023-03-31T17:48:01;3;3;
76421;PMS5003;65254;52.354;13.614;2023-03-31T17:52:00;3;3;
76421;PMS5003;65254;52.354;13.614;2023-03-31T17:56:01;4;4;
76421;PMS5003;65254;52.354;13.614;2023-03-31T18:00:00;4;4;
76421;PMS5003;65254;52.354;13.614;2023-03-31T18:04:00;4;4;
76421;PMS5003;65254;52.354;13.614;2023-03-31T18:08:00;3;3;
76421;PMS5003;65254;52.354;13.614;2023-03-31T18:12:00;5;5;
76421;PMS5003;65254;52.354;13.614;2023-03-31T18:16:02;10;9;
76421;PMS5003;65254;52.354;13.614;2023-03-31T18:20:00;9;8;
76421;PMS5003;65254;52.354;13.614;2023-03-31T18:24:00;10;9;
76421;PMS5003;65254;52.354;13.614;2023-03-31T18:28:00;19;17;
76421;PMS5003;65254;52.354;13.614;2023-03-31T18:32:01;23;21;
76421;PMS5003;65254;52.354;13.614;2023-03-31T18:36:01;26;23;
76421;PMS5003;65254;52.354;13.614;2023-03-31T18:40:00;21;19;
76421;PMS5003;65254;52.354;13.614;2023-03-31T18:44:00;21;19;
76421;PMS5003;65254;52.354;13.614;2023-03-31T18:48:00;17;15;
76421;PMS5003;65254;52.354;13.614;2023-03-31T18:52:00;14;13;
76421;PMS5003;65254;52.354;13.614;2023-03-31T18:56:00;17;15;
76421;PMS5003;65254;52.354;13.614;2023-03-31T19:00:01;15;14;
76421;PMS5003;65254;52.354;13.614;2023-03-31T19:04:00;17;15;
76421;PMS5003;65254;52.354;13.614;2023-03-31T19:08:00;18;16;
76421;PMS5003;65254;52.354;13.614;2023-03-31T19:12:00;20;18;
76421;PMS5003;65254;52.354;13.614;2023-03-31T19:16:01;22;20;
76421;PMS5003;65254;52.354;13.614;2023-03-31T19:20:00;20;18;
76421;PMS5003;65254;52.354;13.614;2023-03-31T19:24:00;22;20;
76421;PMS5003;65254;52.354;13.614;2023-03-31T19:28:00;27;24;
76421;PMS5003;65254;52.354;13.614;2023-03-31T19:32:01;24;22;
76421;PMS5003;65254;52.354;13.614;2023-03-31T19:36:00;22;20;
76421;PMS5003;65254;52.354;13.614;2023-03-31T19:40:00;22;20;
76421;PMS5003;65254;52.354;13.614;2023-03-31T19:44:01;18;16;
76421;PMS5003;65254;52.354;13.614;2023-03-31T19:48:01;16;14;
76421;PMS5003;65254;52.354;13.614;2023-03-31T19:52:00;16;14;
76421;PMS5003;65254;52.354;13.614;2023-03-31T19:56:02;16;14;
76421;PMS5003;65254;52.354;13.614;2023-03-31T20:00:03;15;14;
76421;PMS5003;65254;52.354;13.614;2023-03-31T20:04:01;14;13;
76421;PMS5003;65254;52.354;13.614;2023-03-31T20:08:00;15;14;
76421;PMS5003;65254;52.354;13.614;2023-03-31T20:12:00;15;13;
76421;PMS5003;65254;52.354;13.614;2023-03-31T20:16:02;12;11;
76421;PMS5003;65254;52.354;13.614;2023-03-31T20:20:01;11;10;
76421;PMS5003;65254;52.354;13.614;2023-03-31T20:24:01;8;7;
76421;PMS5003;65254;52.354;13.614;2023-03-31T20:28:00;5;5;
76421;PMS5003;65254;52.354;13.614;2023-03-31T20:32:00;5;5;
76421;PMS5003;65254;52.354;13.614;2023-03-31T20:36:01;3;3;
76421;PMS5003;65254;52.354;13.614;2023-03-31T20:40:00;3;3;
76421;PMS5003;65254;52.354;13.614;2023-03-31T20:44:00;3;3;
76421;PMS5003;65254;52.354;13.614;2023-03-31T20:48:00;2;2;
76421;PMS5003;65254;52.354;13.614;2023-03-31T20:52:00;2;2;
76421;PMS5003;65254;52.354;13.614;2023-03-31T20:56:00;1;1;
76421;PMS5003;65254;52.354;13.614;2023-03-31T21:00:00;2;2;
76421;PMS5003;65254;52.354;13.614;2023-03-31T21:04:03;2;2;
76421;PMS5003;65254;52.354;13.614;2023-03-31T21:08:00;2;2;
76421;PMS5003;65254;52.354;13.614;2023-03-31T21:12:00;2;2;
76421;PMS5003;65254;52.354;13.614;2023-03-31T21:16:00;2;2;
76421;PMS5003;65254;52.354;13.614;2023-03-31T21:20:00;2;2;
76421;PMS5003;65254;52.354;13.614;2023-03-31T21:24:01;2;2;
76421;PMS5003;65254;52.354;13.614;2023-03-31T21:28:01;2;2;
76421;PMS5003;65254;52.354;13.614;2023-03-31T21:32:00;1;1;
76421;PMS5003;65254;52.354;13.614;2023-03-31T21:36:00;2;2;
76421;PMS5003;65254;52.354;13.614;2023-03-31T21:40:00;2;2;
76421;PMS5003;65254;52.354;13.614;2023-03-31T21:44:03;1;1;
76421;PMS5003;65254;52.354;13.614;2023-03-31T21:48:01;2;2;
76421;PMS5003;65254;52.354;13.614;2023-03-31T21:52:00;2;2;
76421;PMS5003;65254;52.354;13.614;2023-03-31T21:56:00;2;2;
76421;PMS5003;65254;52.354;13.614;2023-03-31T22:00:02;1;1;
76421;PMS5003;65254;52.354;13.614;2023-03-31T22:04:01;1;1;
76421;PMS5003;65254;52.354;13.614;2023-03-31T22:08:00;1;1;
76421;PMS5003;65254;52.354;13.614;2023-03-31T22:12:00;1;1;
76421;PMS5003;65254;52.354;13.614;2023-03-31T22:16:01;1;1;
76421;PMS5003;65254;52.354;13.614;2023-03-31T22:20:00;2;2;
76421;PMS5003;65254;52.354;13.614;2023-03-31T22:24:00;2;2;
76421;PMS5003;65254;52.354;13.614;2023-03-31T22:28:01;2;2;
76421;PMS5003;65254;52.354;13.614;2023-03-31T22:32:00;1;1;
76421;PMS5003;65254;52.354;13.614;2023-03-31T22:36:00;2;2;
76421;PMS5003;65254;52.354;13.614;2023-03-31T22:40:00;1;1;
76421;PMS5003;65254;52.354;13.614;2023-03-31T22:44:00;2;2;
76421;PMS5003;65254;52.354;13.614;2023-03-31T22:48:00;2;2;
76421;PMS5003;65254;52.354;13.614;2023-03-31T22:52:00;2;2;
76421;PMS5003;65254;52.354;13.614;2023-03-31T22:56:02;2;2;
76421;PMS5003;65254;52.354;13.614;2023-03-31T23:00:00;1;1;
76421;PMS5003;65254;52.354;13.614;2023-03-31T23:04:01;2;2;
76421;PMS5003;65254;52.354;13.614;2023-03-31T23:08:00;2;2;
76421;PMS5003;65254;52.354;13.614;2023-03-31T23:12:00;2;2;
76421;PMS5003;65254;52.354;13.614;2023-03-31T23:16:03;2;2;
76421;PMS5003;65254;52.354;13.614;2023-03-31T23:20:00;2;2;
76421;PMS5003;65254;52.354;13.614;2023-03-31T23:24:02;2;2;
76421;PMS5003;65254;52.354;13.614;2023-03-31T23:28:00;2;2;
76421;PMS5003;65254;52.354;13.614;2023-03-31T23:32:01;2;2;
76421;PMS5003;65254;52.354;13.614;2023-03-31T23:36:03;2;2;
76421;PMS5003;65254;52.354;13.614;2023-03-31T23:40:00;2;2;
76421;PMS5003;65254;52.354;13.614;2023-03-31T23:44:00;2;2;
76421;PMS5003;65254;52.354;13.614;2023-03-31T23:48:00;1;1;
76421;PMS5003;65254;52.354;13.614;2023-03-31T23:52:01;2;2;
76421;PMS5003;65254;52.354;13.614;2023-03-31T23:56:02;2;2;
